Amanda Ashley — WDA9223 — position and weather

sailwx.info

Track history (hours):
 
Tides and Currents Weather Stations Pressure Air Temp Water Temp Dewpoint Dewpoint Depression Visibility Wind Speed Wind Dir Waves Ship Positions

Amanda Ashley

Owner: DBA JULIE RENEE INC, Aurora, NC. More information available from US FCC via Universal Licensing System and Coast Guard Vessel Documentation Center.

Last reported at 2017-Sep-14 08:18 UTC. Time now 2017-Sep-25 00:38 UTC.
Position N 39°10' W 073°49'.
Warning: this ship's position is 10 days out of date.

Length 10 m.

Type: Pleasure craft. MMSI: 366862830.

Date/timePositionNaut miles runAvg speedWind from/ knotsBaromVisibWave heightAir tempDewpointWater temp
2017-Sep-14 08:18N 39°10' W 073°49'3 7.8
2017-Sep-14 07:58N 39°10' W 073°52'4 7.7
2017-Sep-14 07:30N 39°09' W 073°56'4 7.6
2017-Sep-14 06:59N 39°08' W 074°01'4 7.4
2017-Sep-14 06:30N 39°07' W 074°06'4 7.3
2017-Sep-14 06:00N 39°06' W 074°10'34 1.7
2017-Sep-13 09:36N 38°57' W 074°53'0 0.0
2017-Sep-13 09:27N 38°57' W 074°53'0 0.0
2017-Sep-13 08:57N 38°57' W 074°53'0 0.0
2017-Sep-13 08:30N 38°57' W 074°53'0 0.0
2017-Sep-13 07:57N 38°57' W 074°53'0 0.0
2017-Sep-13 07:27N 38°57' W 074°53'0 0.0
2017-Sep-13 06:51N 38°57' W 074°53'0 0.0
2017-Sep-13 05:42N 38°57' W 074°53'0 0.0
2017-Sep-13 05:15N 38°57' W 074°53'0 0.0
2017-Sep-13 05:00N 38°57' W 074°53'0 0.0
2017-Sep-13 04:24N 38°57' W 074°53'0 0.1
2017-Sep-13 03:59N 38°58' W 074°53'0 0.0
2017-Sep-13 01:58N 38°58' W 074°53'  
Track history (hours):
 
Tides and Currents Weather Stations Pressure Air Temp Water Temp Dewpoint Dewpoint Depression Visibility Wind Speed Wind Dir Waves Ship Positions

Amanda Ashley

Owner: DBA JULIE RENEE INC, Aurora, NC. More information available from US FCC via Universal Licensing System and Coast Guard Vessel Documentation Center.

Last reported at 2017-Sep-14 08:18 UTC. Time now 2017-Sep-25 00:38 UTC.
Position N 39°10' W 073°49'.
Warning: this ship's position is 10 days out of date.

Length 10 m.

Type: Pleasure craft. MMSI: 366862830.

Date/timePositionNaut miles runAvg speedWind from/ knotsBaromVisibWave heightAir tempDewpointWater temp
2017-Sep-14 08:18N 39°10' W 073°49'3 7.8
2017-Sep-14 07:58N 39°10' W 073°52'4 7.7
2017-Sep-14 07:30N 39°09' W 073°56'4 7.6
2017-Sep-14 06:59N 39°08' W 074°01'4 7.4
2017-Sep-14 06:30N 39°07' W 074°06'4 7.3
2017-Sep-14 06:00N 39°06' W 074°10'34 1.7
2017-Sep-13 09:36N 38°57' W 074°53'0 0.0
2017-Sep-13 09:27N 38°57' W 074°53'0 0.0
2017-Sep-13 08:57N 38°57' W 074°53'0 0.0
2017-Sep-13 08:30N 38°57' W 074°53'0 0.0
2017-Sep-13 07:57N 38°57' W 074°53'0 0.0
2017-Sep-13 07:27N 38°57' W 074°53'0 0.0
2017-Sep-13 06:51N 38°57' W 074°53'0 0.0
2017-Sep-13 05:42N 38°57' W 074°53'0 0.0
2017-Sep-13 05:15N 38°57' W 074°53'0 0.0
2017-Sep-13 05:00N 38°57' W 074°53'0 0.0
2017-Sep-13 04:24N 38°57' W 074°53'0 0.1
2017-Sep-13 03:59N 38°58' W 074°53'0 0.0
2017-Sep-13 01:58N 38°58' W 074°53'  

Dump ship's entire track history